createdAt,value
2023-11-30T00:01:56.242Z,-0.18
2023-11-30T00:04:26.451Z,-0.25
2023-11-30T00:07:01.268Z,-0.27
2023-11-30T00:09:35.485Z,-0.30
2023-11-30T00:12:08.047Z,-0.30
2023-11-30T00:14:44.181Z,-0.36
2023-11-30T00:17:19.896Z,-0.39
2023-11-30T00:19:58.499Z,-0.43
2023-11-30T00:22:31.775Z,-0.46
2023-11-30T00:25:08.458Z,-0.49
2023-11-30T00:27:41.697Z,-0.51
2023-11-30T00:30:16.412Z,-0.54
2023-11-30T00:32:52.768Z,-0.56
2023-11-30T00:35:27.132Z,-0.58
2023-11-30T00:37:57.998Z,-0.63
2023-11-30T00:40:45.247Z,-0.65
2023-11-30T00:43:15.499Z,-0.69
2023-11-30T00:46:00.501Z,-0.70
2023-11-30T00:48:39.362Z,-0.76
2023-11-30T00:51:12.098Z,-0.80
2023-11-30T00:53:42.645Z,-0.83
2023-11-30T00:56:15.811Z,-0.83
2023-11-30T00:58:45.846Z,-0.83
2023-11-30T01:01:15.944Z,-0.82
2023-11-30T01:03:46.099Z,-0.80
2023-11-30T01:06:16.299Z,-0.79
2023-11-30T01:08:46.347Z,-0.76
2023-11-30T01:11:19.018Z,-0.79
2023-11-30T01:13:49.213Z,-0.79
2023-11-30T01:16:19.386Z,-0.83
2023-11-30T01:18:49.485Z,-0.87
2023-11-30T01:21:19.668Z,-0.87
2023-11-30T01:23:49.972Z,-0.88
2023-11-30T01:26:23.657Z,-0.89
2023-11-30T01:28:53.788Z,-0.91
2023-11-30T01:31:23.819Z,-0.92
2023-11-30T01:33:54.034Z,-0.93
2023-11-30T01:36:24.135Z,-0.94
2023-11-30T01:38:54.292Z,-0.97
2023-11-30T01:41:27.278Z,-0.98
2023-11-30T01:43:57.425Z,-1.00
2023-11-30T01:46:27.633Z,-1.00
2023-11-30T01:48:57.823Z,-1.00
2023-11-30T01:51:28.956Z,-1.02
2023-11-30T01:54:00.799Z,-1.03
2023-11-30T01:56:34.806Z,-1.03
2023-11-30T01:59:06.296Z,-1.02
2023-11-30T02:01:36.783Z,-1.02
2023-11-30T02:04:14.489Z,-1.04
2023-11-30T02:06:47.117Z,-1.01
2023-11-30T02:09:17.706Z,-1.01
2023-11-30T02:11:50.732Z,-1.02
2023-11-30T02:14:21.377Z,-1.03
2023-11-30T02:19:35.624Z,-1.00
2023-11-30T02:22:09.158Z,-1.01
2023-11-30T02:24:39.469Z,-1.03
2023-11-30T02:27:09.671Z,-1.00
2023-11-30T02:29:39.795Z,-0.98
2023-11-30T02:32:10.175Z,-0.95
2023-11-30T02:34:40.511Z,-0.96
2023-11-30T02:37:13.274Z,-0.95
2023-11-30T02:39:43.445Z,-0.93
2023-11-30T02:42:13.651Z,-0.96
2023-11-30T02:44:43.720Z,-1.00
2023-11-30T02:47:13.798Z,-1.03
2023-11-30T02:49:43.952Z,-1.06
2023-11-30T02:52:16.669Z,-1.08
2023-11-30T02:54:47.475Z,-1.12
2023-11-30T02:57:17.929Z,-1.16
2023-11-30T02:59:48.189Z,-1.18
2023-11-30T03:02:19.016Z,-1.20
2023-11-30T03:04:49.514Z,-1.20
2023-11-30T03:07:22.218Z,-1.20
2023-11-30T03:09:52.353Z,-1.18
2023-11-30T03:12:22.670Z,-1.15
2023-11-30T03:14:52.824Z,-1.13
2023-11-30T03:17:22.920Z,-1.13
2023-11-30T03:19:53.024Z,-1.11
2023-11-30T03:22:25.774Z,-1.14
2023-11-30T03:24:56.015Z,-1.16
2023-11-30T03:27:26.343Z,-1.18
2023-11-30T03:29:56.467Z,-1.20
2023-11-30T03:32:26.673Z,-1.24
2023-11-30T03:34:56.919Z,-1.28
2023-11-30T03:37:29.785Z,-1.30
2023-11-30T03:39:59.888Z,-1.32
2023-11-30T03:42:30.132Z,-1.36
2023-11-30T03:45:00.435Z,-1.38
2023-11-30T03:47:30.610Z,-1.40
2023-11-30T03:50:00.695Z,-1.42
2023-11-30T03:52:33.459Z,-1.44
2023-11-30T03:55:04.037Z,-1.49
2023-11-30T03:57:35.107Z,-1.51
2023-11-30T04:00:08.658Z,-1.53
2023-11-30T04:02:38.843Z,-1.56
2023-11-30T04:05:10.529Z,-1.59
2023-11-30T04:07:44.805Z,-1.61
2023-11-30T04:10:15.789Z,-1.62
2023-11-30T04:12:45.918Z,-1.64
2023-11-30T04:15:16.059Z,-1.64
2023-11-30T04:17:46.192Z,-1.66
2023-11-30T04:20:16.470Z,-1.68
2023-11-30T04:22:49.422Z,-1.72
2023-11-30T04:25:20.429Z,-1.76
2023-11-30T04:27:50.689Z,-1.78
2023-11-30T04:30:20.868Z,-1.81
2023-11-30T04:32:51.699Z,-1.83
2023-11-30T04:35:21.860Z,-1.85
2023-11-30T04:37:54.656Z,-1.92
2023-11-30T04:40:25.453Z,-1.94
2023-11-30T04:42:55.523Z,-1.98
2023-11-30T04:45:25.636Z,-2.01
2023-11-30T04:47:55.937Z,-2.04
2023-11-30T04:50:26.079Z,-2.07
2023-11-30T04:52:58.894Z,-2.08
2023-11-30T04:55:29.023Z,-2.10
2023-11-30T04:57:59.148Z,-2.13
2023-11-30T05:00:29.311Z,-2.17
2023-11-30T05:02:59.606Z,-2.19
2023-11-30T05:05:30.095Z,-2.21
2023-11-30T05:08:03.011Z,-2.25
2023-11-30T05:10:33.158Z,-2.26
2023-11-30T05:13:03.393Z,-2.28
2023-11-30T05:15:33.498Z,-2.29
2023-11-30T05:18:03.713Z,-2.30
2023-11-30T05:20:33.929Z,-2.31
2023-11-30T05:23:06.665Z,-2.36
2023-11-30T05:25:36.930Z,-2.38
2023-11-30T05:28:07.808Z,-2.41
2023-11-30T05:30:38.174Z,-2.46
2023-11-30T05:33:08.573Z,-2.55
2023-11-30T05:35:39.901Z,-2.63
2023-11-30T05:38:12.591Z,-2.71
2023-11-30T05:40:42.702Z,-2.76
2023-11-30T05:43:12.778Z,-2.80
2023-11-30T05:45:43.106Z,-2.85
2023-11-30T05:48:13.423Z,-2.86
2023-11-30T05:50:43.733Z,-2.89
2023-11-30T05:53:16.439Z,-2.91
2023-11-30T05:55:46.516Z,-2.91
2023-11-30T05:58:16.633Z,-2.86
2023-11-30T06:00:47.069Z,-2.83
2023-11-30T06:03:17.310Z,-2.82
2023-11-30T06:05:47.588Z,-2.77
2023-11-30T06:08:20.291Z,-2.70
2023-11-30T06:10:50.493Z,-2.64
2023-11-30T06:13:20.587Z,-2.59
2023-11-30T06:15:50.767Z,-2.60
2023-11-30T06:18:21.126Z,-2.59
2023-11-30T06:20:54.286Z,-2.58
2023-11-30T06:23:26.967Z,-2.57
2023-11-30T06:25:57.181Z,-2.53
2023-11-30T06:28:29.579Z,-2.49
2023-11-30T06:30:59.719Z,-2.49
2023-11-30T06:33:30.083Z,-2.45
2023-11-30T06:36:00.336Z,-2.37
2023-11-30T06:38:33.310Z,-2.23
2023-11-30T06:41:06.901Z,-2.17
2023-11-30T06:43:37.262Z,-2.19
2023-11-30T06:46:08.478Z,-2.23
2023-11-30T06:48:38.620Z,-2.23
2023-11-30T06:51:10.936Z,-2.26
2023-11-30T06:53:43.662Z,-2.26
2023-11-30T06:56:16.880Z,-2.26
2023-11-30T06:58:47.058Z,-2.23
2023-11-30T07:01:17.517Z,-2.21
2023-11-30T07:03:47.708Z,-2.16
2023-11-30T07:06:17.954Z,-2.13
2023-11-30T07:08:50.726Z,-2.10
2023-11-30T07:11:20.930Z,-2.08
2023-11-30T07:13:51.205Z,-2.10
2023-11-30T07:16:21.443Z,-2.13
2023-11-30T07:18:53.125Z,-2.12
2023-11-30T07:21:23.274Z,-2.12
2023-11-30T07:23:56.048Z,-2.07
2023-11-30T07:26:26.194Z,-1.90
2023-11-30T07:28:56.524Z,-1.65
2023-11-30T07:31:26.668Z,-1.36
2023-11-30T07:33:56.822Z,-1.04
2023-11-30T07:36:26.908Z,-0.74
2023-11-30T07:38:59.582Z,-0.51
2023-11-30T07:41:29.743Z,-0.38
2023-11-30T07:43:59.917Z,-0.41
2023-11-30T07:46:30.545Z,-0.49
2023-11-30T07:49:00.649Z,-0.62
2023-11-30T07:51:30.762Z,-0.77
2023-11-30T07:54:04.012Z,-0.85
2023-11-30T07:56:34.271Z,-0.91
2023-11-30T07:59:04.653Z,-1.00
2023-11-30T08:01:34.809Z,-1.05
2023-11-30T08:04:05.130Z,-1.12
2023-11-30T08:06:35.443Z,-1.15
2023-11-30T08:09:09.646Z,-1.17
2023-11-30T08:11:40.973Z,-1.18
2023-11-30T08:14:11.284Z,-1.20
2023-11-30T08:16:41.972Z,-1.23
2023-11-30T08:19:12.797Z,-1.20
2023-11-30T08:21:44.405Z,-1.20
2023-11-30T08:24:17.135Z,-1.21
2023-11-30T08:26:48.187Z,-1.23
2023-11-30T08:29:18.572Z,-1.24
2023-11-30T08:31:48.646Z,-1.26
2023-11-30T08:34:18.790Z,-1.26
2023-11-30T08:36:48.846Z,-1.27
2023-11-30T08:39:25.297Z,-1.27
2023-11-30T08:42:05.225Z,-1.22
2023-11-30T08:44:36.851Z,-1.14
2023-11-30T08:47:15.027Z,-1.06
2023-11-30T08:49:47.244Z,-1.02
2023-11-30T08:52:17.653Z,-0.96
2023-11-30T08:54:50.450Z,-0.90
2023-11-30T08:57:21.146Z,-0.82
2023-11-30T08:59:52.251Z,-0.80
2023-11-30T09:02:25.664Z,-0.79
2023-11-30T09:04:55.944Z,-0.82
2023-11-30T09:07:26.312Z,-0.76
2023-11-30T09:09:59.694Z,-0.74
2023-11-30T09:12:29.957Z,-0.71
2023-11-30T09:15:00.778Z,-0.66
2023-11-30T09:17:31.154Z,-0.63
2023-11-30T09:20:01.279Z,-0.59
2023-11-30T09:22:31.518Z,-0.54
2023-11-30T09:25:09.284Z,-0.49
2023-11-30T09:27:39.485Z,-0.43
2023-11-30T09:30:13.823Z,-0.35
2023-11-30T09:32:44.179Z,-0.26
2023-11-30T09:35:15.986Z,-0.18
2023-11-30T09:37:47.316Z,-0.13
2023-11-30T09:40:21.386Z,-0.06
2023-11-30T09:42:51.692Z,-0.04
2023-11-30T09:45:24.178Z,0.01
2023-11-30T09:47:54.424Z,0.05
2023-11-30T09:50:24.661Z,0.11
2023-11-30T09:52:55.239Z,0.17
2023-11-30T09:55:30.515Z,0.19
2023-11-30T09:58:05.574Z,0.17
2023-11-30T10:00:35.926Z,0.13
2023-11-30T10:03:07.232Z,0.16
2023-11-30T10:05:37.424Z,0.21
2023-11-30T10:08:08.026Z,0.23
2023-11-30T10:10:42.866Z,0.27
2023-11-30T10:13:13.201Z,0.32
2023-11-30T10:15:44.410Z,0.35
2023-11-30T10:18:15.088Z,0.45
2023-11-30T10:20:45.240Z,0.47
2023-11-30T10:23:16.663Z,0.46
2023-11-30T10:25:51.294Z,0.45
2023-11-30T10:28:24.863Z,0.47
2023-11-30T10:30:57.344Z,0.56
2023-11-30T10:33:28.394Z,0.62
2023-11-30T10:36:03.196Z,0.72
2023-11-30T10:38:39.876Z,0.89
2023-11-30T10:41:22.699Z,1.09
2023-11-30T10:43:59.840Z,1.25
2023-11-30T10:46:34.794Z,1.40
2023-11-30T10:49:07.929Z,1.48
2023-11-30T10:51:38.982Z,1.51
2023-11-30T10:54:17.701Z,1.54
2023-11-30T10:56:51.164Z,1.65
2023-11-30T10:59:21.245Z,1.76
2023-11-30T11:01:51.792Z,1.87
2023-11-30T11:04:24.461Z,2.01
2023-11-30T11:07:04.426Z,2.14
2023-11-30T11:09:44.760Z,2.27
2023-11-30T11:12:26.743Z,2.38
2023-11-30T11:15:14.335Z,2.60
2023-11-30T11:17:51.000Z,3.00
2023-11-30T11:20:26.624Z,3.30
2023-11-30T11:22:58.148Z,3.63
2023-11-30T11:25:29.265Z,3.70
2023-11-30T11:28:02.074Z,3.78
2023-11-30T11:30:35.728Z,4.35
2023-11-30T11:33:06.506Z,5.44
2023-11-30T11:35:36.630Z,7.47
2023-11-30T11:38:08.667Z,8.73
2023-11-30T11:40:42.379Z,8.98
2023-11-30T11:43:15.195Z,8.87
2023-11-30T11:45:45.401Z,9.76
2023-11-30T11:48:15.879Z,10.59
2023-11-30T11:50:46.361Z,12.13
2023-11-30T11:53:16.452Z,13.56
2023-11-30T11:55:46.695Z,14.54
2023-11-30T11:58:19.758Z,15.10
2023-11-30T12:00:56.696Z,15.27
2023-11-30T12:03:29.859Z,15.30
2023-11-30T12:06:00.760Z,15.33
2023-11-30T12:08:36.551Z,15.20
2023-11-30T12:11:09.149Z,15.31
2023-11-30T12:13:41.856Z,15.41
2023-11-30T12:16:12.957Z,15.27
2023-11-30T12:18:43.379Z,14.57
2023-11-30T12:21:13.627Z,13.20
2023-11-30T12:23:43.758Z,12.46
2023-11-30T12:26:14.031Z,11.97
2023-11-30T12:28:46.752Z,11.19
2023-11-30T12:31:16.943Z,10.61
2023-11-30T12:33:48.800Z,10.09
2023-11-30T12:36:23.659Z,9.42
2023-11-30T12:38:53.818Z,9.09
2023-11-30T12:41:23.903Z,9.33
2023-11-30T12:43:57.350Z,10.01
2023-11-30T12:46:27.523Z,10.83
2023-11-30T12:48:57.977Z,11.82
2023-11-30T12:51:28.444Z,12.39
2023-11-30T12:53:58.544Z,12.21
2023-11-30T12:56:29.059Z,11.74
2023-11-30T12:59:02.166Z,11.04
2023-11-30T13:01:35.065Z,10.10
2023-11-30T13:04:05.516Z,9.18
2023-11-30T13:06:36.566Z,8.36
2023-11-30T13:09:08.511Z,7.61
2023-11-30T13:11:39.679Z,6.89
2023-11-30T13:14:12.743Z,6.32
2023-11-30T13:16:42.903Z,5.87
2023-11-30T13:19:13.329Z,5.43
2023-11-30T13:21:43.559Z,5.08
2023-11-30T13:24:13.761Z,4.77
2023-11-30T13:26:43.920Z,4.51
2023-11-30T13:29:16.840Z,4.24
2023-11-30T13:31:48.091Z,3.99
2023-11-30T13:34:18.359Z,3.75
2023-11-30T13:36:48.948Z,3.57
2023-11-30T13:39:19.226Z,3.42
2023-11-30T13:41:49.766Z,3.25
2023-11-30T13:44:22.668Z,3.04
2023-11-30T13:46:53.621Z,2.88
2023-11-30T13:49:24.413Z,2.78
2023-11-30T13:51:56.167Z,2.69
2023-11-30T13:54:26.371Z,2.64
2023-11-30T13:56:56.481Z,2.63
2023-11-30T13:59:29.396Z,2.59
2023-11-30T14:01:59.567Z,2.52
2023-11-30T14:04:29.671Z,2.46
2023-11-30T14:07:00.611Z,2.39
2023-11-30T14:09:30.879Z,2.31
2023-11-30T14:12:01.125Z,2.26
2023-11-30T14:14:33.928Z,2.17
2023-11-30T14:17:05.179Z,2.10
2023-11-30T14:19:37.080Z,2.00
2023-11-30T14:22:09.817Z,1.92
2023-11-30T14:24:40.093Z,1.81
2023-11-30T14:27:10.788Z,1.70
2023-11-30T14:29:43.614Z,1.60
2023-11-30T14:32:13.894Z,1.51
2023-11-30T14:34:46.131Z,1.44
2023-11-30T14:37:17.609Z,1.37
2023-11-30T14:39:48.049Z,1.32
2023-11-30T14:42:18.203Z,1.26
2023-11-30T14:44:54.092Z,1.19
2023-11-30T14:47:27.190Z,1.13
2023-11-30T14:49:57.301Z,1.06
2023-11-30T14:52:27.518Z,0.99
2023-11-30T14:54:57.648Z,0.92
2023-11-30T14:57:27.807Z,0.86
2023-11-30T15:00:02.314Z,0.82
2023-11-30T15:02:32.491Z,0.78
2023-11-30T15:05:02.794Z,0.74
2023-11-30T15:07:33.430Z,0.71
2023-11-30T15:10:05.559Z,0.66
2023-11-30T15:12:37.396Z,0.60
2023-11-30T15:15:15.158Z,0.53
2023-11-30T15:17:49.561Z,0.47
2023-11-30T15:20:20.438Z,0.41
2023-11-30T15:22:52.424Z,0.36
2023-11-30T15:25:22.598Z,0.29
2023-11-30T15:27:52.822Z,0.23
2023-11-30T15:30:26.910Z,0.16
2023-11-30T15:32:57.148Z,0.11
2023-11-30T15:35:29.159Z,0.05
2023-11-30T15:37:59.990Z,-0.01
2023-11-30T15:40:30.551Z,-0.05
2023-11-30T15:43:00.892Z,-0.09
2023-11-30T15:45:33.832Z,-0.13
2023-11-30T15:48:04.925Z,-0.16
2023-11-30T15:50:35.760Z,-0.23
2023-11-30T15:53:06.234Z,-0.27
2023-11-30T15:55:36.370Z,-0.33
2023-11-30T15:58:07.055Z,-0.37
2023-11-30T16:00:39.985Z,-0.41
2023-11-30T16:03:12.681Z,-0.45
2023-11-30T16:05:43.345Z,-0.48
2023-11-30T16:08:13.517Z,-0.51
2023-11-30T16:10:43.642Z,-0.55
2023-11-30T16:13:13.863Z,-0.58
2023-11-30T16:15:46.598Z,-0.62
2023-11-30T16:18:16.915Z,-0.67
2023-11-30T16:20:50.054Z,-0.69
2023-11-30T16:23:20.249Z,-0.73
2023-11-30T16:25:51.007Z,-0.76
2023-11-30T16:28:21.255Z,-0.78
2023-11-30T16:30:57.662Z,-0.82
2023-11-30T16:33:28.778Z,-0.87
2023-11-30T16:35:58.916Z,-0.91
2023-11-30T16:38:28.943Z,-0.97
2023-11-30T16:40:59.118Z,-1.00
2023-11-30T16:43:32.592Z,-1.01
2023-11-30T16:46:07.497Z,-1.03
2023-11-30T16:48:38.189Z,-1.06
2023-11-30T16:51:10.818Z,-1.09
2023-11-30T16:53:41.001Z,-1.12
2023-11-30T16:56:13.860Z,-1.14
2023-11-30T16:58:44.027Z,-1.15
2023-11-30T17:01:16.878Z,-1.17
2023-11-30T17:03:47.429Z,-1.19
2023-11-30T17:06:20.950Z,-1.22
2023-11-30T17:08:53.005Z,-1.25
2023-11-30T17:11:23.163Z,-1.29
2023-11-30T17:13:53.264Z,-1.33
2023-11-30T17:16:28.206Z,-1.35
2023-11-30T17:18:58.591Z,-1.36
2023-11-30T17:21:28.815Z,-1.36
2023-11-30T17:23:59.773Z,-1.39
2023-11-30T17:26:29.917Z,-1.42
2023-11-30T17:29:02.922Z,-1.45
2023-11-30T17:31:36.229Z,-1.46
2023-11-30T17:34:06.621Z,-1.45
2023-11-30T17:36:36.842Z,-1.47
2023-11-30T17:39:07.320Z,-1.49
2023-11-30T17:41:42.490Z,-1.51
2023-11-30T17:44:12.794Z,-1.54
2023-11-30T17:46:46.375Z,-1.55
2023-11-30T17:49:23.845Z,-1.59
2023-11-30T17:51:54.166Z,-1.62
2023-11-30T17:54:24.421Z,-1.67
2023-11-30T17:56:54.572Z,-1.72
2023-11-30T17:59:24.925Z,-1.74
2023-11-30T18:01:57.819Z,-1.76
2023-11-30T18:04:28.078Z,-1.79
2023-11-30T18:06:58.251Z,-1.82
2023-11-30T18:09:28.468Z,-1.83
2023-11-30T18:11:58.845Z,-1.86
2023-11-30T18:14:32.781Z,-1.89
2023-11-30T18:17:06.641Z,-1.93
2023-11-30T18:19:37.781Z,-1.96
2023-11-30T18:22:08.174Z,-1.99
2023-11-30T18:24:38.535Z,-2.02
2023-11-30T18:27:08.835Z,-2.02
2023-11-30T18:29:39.105Z,-2.02
2023-11-30T18:32:13.032Z,-2.04
2023-11-30T18:34:43.299Z,-2.05
2023-11-30T18:37:13.397Z,-2.07
2023-11-30T18:39:43.564Z,-2.08
2023-11-30T18:42:13.781Z,-2.10
2023-11-30T18:44:43.881Z,-2.13
2023-11-30T18:47:17.736Z,-2.13
2023-11-30T18:49:49.286Z,-2.14
2023-11-30T18:52:19.570Z,-2.16
2023-11-30T18:54:52.421Z,-2.17
2023-11-30T18:57:22.678Z,-2.18
2023-11-30T18:59:52.781Z,-2.19
2023-11-30T19:02:25.654Z,-2.22
2023-11-30T19:04:56.731Z,-2.22
2023-11-30T19:07:26.915Z,-2.24
2023-11-30T19:09:57.120Z,-2.27
2023-11-30T19:12:27.203Z,-2.30
2023-11-30T19:14:57.375Z,-2.30
2023-11-30T19:17:30.175Z,-2.29
2023-11-30T19:20:00.319Z,-2.30
2023-11-30T19:22:30.390Z,-2.28
2023-11-30T19:25:01.184Z,-2.29
2023-11-30T19:27:31.373Z,-2.28
2023-11-30T19:30:01.791Z,-2.28
2023-11-30T19:32:34.767Z,-2.28
2023-11-30T19:35:05.164Z,-2.26
2023-11-30T19:37:35.303Z,-2.26
2023-11-30T19:40:07.034Z,-2.26
2023-11-30T19:42:37.130Z,-2.28
2023-11-30T19:45:08.688Z,-2.28
2023-11-30T19:47:41.721Z,-2.29
2023-11-30T19:50:13.313Z,-2.31
2023-11-30T19:52:44.054Z,-2.35
2023-11-30T19:55:14.162Z,-2.37
2023-11-30T19:57:44.330Z,-2.38
2023-11-30T20:00:16.422Z,-2.38
2023-11-30T20:02:49.384Z,-2.40
2023-11-30T20:05:19.622Z,-2.44
2023-11-30T20:07:49.805Z,-2.46
2023-11-30T20:10:20.612Z,-2.48
2023-11-30T20:12:53.657Z,-2.50
2023-11-30T20:15:24.097Z,-2.54
2023-11-30T20:17:56.810Z,-2.56
2023-11-30T20:20:27.002Z,-2.59
2023-11-30T20:22:57.174Z,-2.63
2023-11-30T20:25:27.296Z,-2.68
2023-11-30T20:27:57.584Z,-2.72
2023-11-30T20:30:29.339Z,-2.73
2023-11-30T20:33:02.334Z,-2.77
2023-11-30T20:35:33.571Z,-2.83
2023-11-30T20:38:03.930Z,-2.91
2023-11-30T20:40:34.162Z,-2.96
2023-11-30T20:43:05.279Z,-3.02
2023-11-30T20:45:35.568Z,-3.05
2023-11-30T20:48:08.630Z,-3.09
2023-11-30T20:50:39.210Z,-3.14
2023-11-30T20:53:09.251Z,-3.19
2023-11-30T20:55:39.461Z,-3.26
2023-11-30T20:58:09.762Z,-3.32
2023-11-30T21:00:39.924Z,-3.36
2023-11-30T21:03:12.716Z,-3.40
2023-11-30T21:05:42.869Z,-3.43
2023-11-30T21:08:13.070Z,-3.47
2023-11-30T21:10:43.170Z,-3.41
2023-11-30T21:13:13.252Z,-3.41
2023-11-30T21:15:43.402Z,-3.43
2023-11-30T21:18:16.481Z,-3.46
2023-11-30T21:20:46.557Z,-3.47
2023-11-30T21:23:16.752Z,-3.49
2023-11-30T21:25:46.941Z,-3.49
2023-11-30T21:28:17.326Z,-3.54
2023-11-30T21:30:48.099Z,-3.55
2023-11-30T21:33:20.973Z,-3.56
2023-11-30T21:35:51.092Z,-3.59
2023-11-30T21:38:21.247Z,-3.62
2023-11-30T21:40:51.637Z,-3.63
2023-11-30T21:43:21.696Z,-3.66
2023-11-30T21:45:52.011Z,-3.68
2023-11-30T21:51:09.623Z,-3.75
2023-11-30T21:53:39.742Z,-3.79
2023-11-30T21:56:12.459Z,-3.83
2023-11-30T21:58:42.530Z,-3.83
2023-11-30T22:01:12.681Z,-3.84
2023-11-30T22:03:45.603Z,-3.85
2023-11-30T22:06:17.012Z,-3.88
2023-11-30T22:08:51.639Z,-3.93
2023-11-30T22:11:21.875Z,-3.95
2023-11-30T22:13:51.906Z,-3.98
2023-11-30T22:16:26.547Z,-3.98
2023-11-30T22:19:07.302Z,-4.00
2023-11-30T22:21:37.746Z,-4.01
2023-11-30T22:24:08.747Z,-4.01
2023-11-30T22:26:38.949Z,-4.01
2023-11-30T22:29:09.156Z,-4.00
2023-11-30T22:31:39.603Z,-4.04
2023-11-30T22:34:12.686Z,-4.05
2023-11-30T22:36:46.417Z,-4.05
2023-11-30T22:39:19.395Z,-4.06
2023-11-30T22:41:50.892Z,-4.06
2023-11-30T22:44:22.313Z,-4.03
2023-11-30T22:46:52.582Z,-4.00
2023-11-30T22:49:25.284Z,-3.97
2023-11-30T22:51:58.097Z,-3.92
2023-11-30T22:54:31.514Z,-3.89
2023-11-30T22:57:01.692Z,-3.86
2023-11-30T22:59:31.966Z,-3.84
2023-11-30T23:02:04.532Z,-3.83
2023-11-30T23:04:38.384Z,-3.82
2023-11-30T23:07:10.531Z,-3.80
2023-11-30T23:09:42.131Z,-3.78
2023-11-30T23:12:13.383Z,-3.77
2023-11-30T23:14:43.721Z,-3.79
2023-11-30T23:17:13.880Z,-3.81
2023-11-30T23:20:04.611Z,-3.84
2023-11-30T23:22:46.817Z,-3.88
2023-11-30T23:25:17.504Z,-3.89
2023-11-30T23:27:47.693Z,-3.94
2023-11-30T23:30:21.068Z,-3.98
2023-11-30T23:32:53.207Z,-4.00
2023-11-30T23:35:26.267Z,-4.04
2023-11-30T23:38:00.798Z,-4.07
2023-11-30T23:40:49.745Z,-4.11
2023-11-30T23:43:29.605Z,-4.12
2023-11-30T23:45:59.823Z,-4.14
2023-11-30T23:48:38.858Z,-4.16
2023-11-30T23:51:18.896Z,-4.17
2023-11-30T23:53:50.345Z,-4.17
2023-11-30T23:56:20.498Z,-4.19
2023-11-30T23:58:50.996Z,-4.22
